createdAt,value
2018-12-10T00:00:49.270Z,5.60
2018-12-10T00:03:23.149Z,5.50
2018-12-10T00:05:51.487Z,5.50
2018-12-10T00:08:19.814Z,5.40
2018-12-10T00:10:48.278Z,5.40
2018-12-10T00:13:16.619Z,5.40
2018-12-10T00:15:44.931Z,5.50
2018-12-10T00:18:13.310Z,5.60
2018-12-10T00:20:41.667Z,5.80
2018-12-10T00:23:10.010Z,5.80
2018-12-10T00:25:38.703Z,5.70
2018-12-10T00:28:07.046Z,5.60
2018-12-10T00:30:35.375Z,5.60
2018-12-10T00:33:04.111Z,5.60
2018-12-10T00:35:32.439Z,5.50
2018-12-10T00:38:00.862Z,5.60
2018-12-10T00:40:29.875Z,5.60
2018-12-10T00:42:58.235Z,5.60
2018-12-10T00:45:26.590Z,5.50
2018-12-10T00:47:55.707Z,5.50
2018-12-10T00:50:24.270Z,5.40
2018-12-10T00:52:52.603Z,5.40
2018-12-10T00:55:21.429Z,5.30
2018-12-10T00:57:49.774Z,5.30
2018-12-10T01:00:18.131Z,5.20
2018-12-10T01:02:47.133Z,5.10
2018-12-10T01:05:15.491Z,5.10
2018-12-10T01:07:43.849Z,5.10
2018-12-10T01:10:12.865Z,5.10
2018-12-10T01:12:41.194Z,5.30
2018-12-10T01:15:09.531Z,5.50
2018-12-10T01:17:38.650Z,5.50
2018-12-10T01:20:07.098Z,5.40
2018-12-10T01:22:35.455Z,5.30
2018-12-10T01:25:05.299Z,5.20
2018-12-10T01:27:33.631Z,5.10
2018-12-10T01:30:01.979Z,5.10
2018-12-10T01:32:30.663Z,5.00
2018-12-10T01:34:59.027Z,5.00
2018-12-10T01:37:27.350Z,4.90
2018-12-10T01:39:56.204Z,4.90
2018-12-10T01:42:24.555Z,4.90
2018-12-10T01:44:52.900Z,5.00
2018-12-10T01:47:21.502Z,4.90
2018-12-10T01:49:49.926Z,4.90
2018-12-10T01:52:18.275Z,4.90
2018-12-10T01:54:47.090Z,4.90
2018-12-10T01:57:15.428Z,4.80
2018-12-10T01:59:43.879Z,4.80
2018-12-10T02:02:12.848Z,4.80
2018-12-10T02:04:41.203Z,4.80
2018-12-10T02:07:10.458Z,4.80
2018-12-10T02:09:39.113Z,4.80
2018-12-10T02:12:07.595Z,4.80
2018-12-10T02:14:36.054Z,4.80
2018-12-10T02:17:04.958Z,4.80
2018-12-10T02:19:33.405Z,4.80
2018-12-10T02:22:01.743Z,4.70
2018-12-10T02:24:30.535Z,4.70
2018-12-10T02:26:58.870Z,4.80
2018-12-10T02:29:28.166Z,4.90
2018-12-10T02:31:56.826Z,4.80
2018-12-10T02:34:25.163Z,4.80
2018-12-10T02:36:53.505Z,4.90
2018-12-10T02:39:22.222Z,4.90
2018-12-10T02:41:50.584Z,4.90
2018-12-10T02:44:18.933Z,4.80
2018-12-10T02:46:47.904Z,4.70
2018-12-10T02:49:16.360Z,4.70
2018-12-10T02:51:44.790Z,4.70
2018-12-10T02:54:13.150Z,4.70
2018-12-10T02:56:41.480Z,4.70
2018-12-10T02:59:09.880Z,4.60
2018-12-10T03:01:39.804Z,4.60
2018-12-10T03:04:08.151Z,4.60
2018-12-10T03:06:36.503Z,4.70
2018-12-10T03:09:06.947Z,4.80
2018-12-10T03:11:35.392Z,4.90
2018-12-10T03:14:03.835Z,5.20
2018-12-10T03:16:32.826Z,5.20
2018-12-10T03:19:01.161Z,5.30
2018-12-10T03:21:29.499Z,5.30
2018-12-10T03:23:58.077Z,5.30
2018-12-10T03:26:26.431Z,5.30
2018-12-10T03:28:54.768Z,5.20
2018-12-10T03:31:23.267Z,5.20
2018-12-10T03:33:51.791Z,5.10
2018-12-10T03:36:20.255Z,5.10
2018-12-10T03:38:48.667Z,5.10
2018-12-10T03:41:17.027Z,5.20
2018-12-10T03:43:45.360Z,5.10
2018-12-10T03:46:13.987Z,5.00
2018-12-10T03:48:42.318Z,5.00
2018-12-10T03:51:10.659Z,5.00
2018-12-10T03:53:40.376Z,5.00
2018-12-10T03:56:08.731Z,5.10
2018-12-10T03:58:37.067Z,5.20
2018-12-10T04:01:05.870Z,5.20
2018-12-10T04:03:34.223Z,5.20
2018-12-10T04:06:02.641Z,5.20
2018-12-10T04:08:31.129Z,5.20
2018-12-10T04:10:59.471Z,5.40
2018-12-10T04:13:27.807Z,5.50
2018-12-10T04:15:56.693Z,5.40
2018-12-10T04:18:25.779Z,5.40
2018-12-10T04:20:54.487Z,5.30
2018-12-10T04:23:22.883Z,5.20
2018-12-10T04:25:51.218Z,5.10
2018-12-10T04:28:19.563Z,5.00
2018-12-10T04:30:48.207Z,5.00
2018-12-10T04:33:16.558Z,4.90
2018-12-10T04:35:44.908Z,4.90
2018-12-10T04:38:13.275Z,4.80
2018-12-10T04:40:41.619Z,4.80
2018-12-10T04:43:09.990Z,4.80
2018-12-10T04:45:38.678Z,4.70
2018-12-10T04:48:07.014Z,4.70
2018-12-10T04:50:35.364Z,4.70
2018-12-10T04:53:04.146Z,4.70
2018-12-10T04:55:32.699Z,4.70
2018-12-10T04:58:01.059Z,4.70
2018-12-10T05:00:29.434Z,4.70
2018-12-10T05:02:57.754Z,4.70
2018-12-10T05:05:26.202Z,4.60
2018-12-10T05:07:55.127Z,4.50
2018-12-10T05:10:23.491Z,4.40
2018-12-10T05:12:51.827Z,4.40
2018-12-10T05:15:20.541Z,4.40
2018-12-10T05:17:48.930Z,4.40
2018-12-10T05:20:17.402Z,4.40
2018-12-10T05:22:46.518Z,4.50
2018-12-10T05:25:14.958Z,4.50
2018-12-10T05:27:43.354Z,4.50
2018-12-10T05:30:12.375Z,4.50
2018-12-10T05:32:40.710Z,4.50
2018-12-10T05:35:09.047Z,4.50
2018-12-10T05:37:37.862Z,4.50
2018-12-10T05:40:06.414Z,4.60
2018-12-10T05:42:34.766Z,4.70
2018-12-10T05:45:03.682Z,4.70
2018-12-10T05:47:32.019Z,4.70
2018-12-10T05:50:00.447Z,4.70
2018-12-10T05:52:29.715Z,4.70
2018-12-10T05:54:58.141Z,4.70
2018-12-10T05:57:26.775Z,4.70
2018-12-10T05:59:55.224Z,4.60
2018-12-10T06:02:23.651Z,4.60
2018-12-10T06:04:52.099Z,4.50
2018-12-10T06:07:20.685Z,4.50
2018-12-10T06:09:51.128Z,4.40
2018-12-10T06:12:19.586Z,4.40
2018-12-10T06:14:48.431Z,4.40
2018-12-10T06:17:16.880Z,4.50
2018-12-10T06:19:45.427Z,4.40
2018-12-10T06:22:14.483Z,4.40
2018-12-10T06:24:42.942Z,4.40
2018-12-10T06:27:11.408Z,4.30
2018-12-10T06:29:40.143Z,4.30
2018-12-10T06:32:08.596Z,4.30
2018-12-10T06:34:37.026Z,4.30
2018-12-10T06:37:06.383Z,4.40
2018-12-10T06:39:35.435Z,4.40
2018-12-10T06:42:03.875Z,4.50
2018-12-10T06:44:32.491Z,4.50
2018-12-10T06:47:01.013Z,4.50
2018-12-10T06:49:29.454Z,4.50
2018-12-10T06:51:57.958Z,4.60
2018-12-10T06:54:26.778Z,4.60
2018-12-10T06:56:56.436Z,4.60
2018-12-10T06:59:25.046Z,4.60
2018-12-10T07:01:53.462Z,4.60
2018-12-10T07:04:22.015Z,4.50
2018-12-10T07:06:51.090Z,4.40
2018-12-10T07:09:19.640Z,4.40
2018-12-10T07:11:48.090Z,4.40
2018-12-10T07:14:16.595Z,4.40
2018-12-10T07:16:45.050Z,4.40
2018-12-10T07:19:13.483Z,4.40
2018-12-10T07:21:41.978Z,4.40
2018-12-10T07:24:10.447Z,4.50
2018-12-10T07:26:38.880Z,4.50
2018-12-10T07:29:07.330Z,4.50
2018-12-10T07:31:35.783Z,4.60
2018-12-10T07:34:04.231Z,4.60
2018-12-10T07:36:33.082Z,4.60
2018-12-10T07:39:01.736Z,4.50
2018-12-10T07:41:30.185Z,4.40
2018-12-10T07:43:58.640Z,4.40
2018-12-10T07:46:27.073Z,4.40
2018-12-10T07:48:55.498Z,4.30
2018-12-10T07:51:23.979Z,4.30
2018-12-10T07:53:52.448Z,4.40
2018-12-10T07:56:28.843Z,4.50
2018-12-10T07:58:51.723Z,4.50
2018-12-10T08:01:20.343Z,4.60
2018-12-10T08:03:48.767Z,4.60
2018-12-10T08:06:18.298Z,4.60
2018-12-10T08:08:46.714Z,4.60
2018-12-10T08:11:15.154Z,4.60
2018-12-10T08:13:43.885Z,4.70
2018-12-10T08:16:12.299Z,4.70
2018-12-10T08:18:40.723Z,4.70
2018-12-10T08:21:09.595Z,4.70
2018-12-10T08:23:38.263Z,4.80
2018-12-10T08:26:06.747Z,4.80
2018-12-10T08:28:35.734Z,4.70
2018-12-10T08:31:04.196Z,4.70
2018-12-10T08:33:32.624Z,4.60
2018-12-10T08:36:01.090Z,4.60
2018-12-10T08:38:29.529Z,4.60
2018-12-10T08:40:58.002Z,4.70
2018-12-10T08:43:26.498Z,4.80
2018-12-10T08:45:54.835Z,4.90
2018-12-10T08:48:23.186Z,5.00
2018-12-10T08:50:51.914Z,5.00
2018-12-10T08:53:20.263Z,5.00
2018-12-10T08:55:48.667Z,5.10
2018-12-10T08:58:17.043Z,5.20
2018-12-10T09:00:45.390Z,5.30
2018-12-10T09:03:13.963Z,5.30
2018-12-10T09:05:43.263Z,5.40
2018-12-10T09:08:11.615Z,5.40
2018-12-10T09:10:39.975Z,5.50
2018-12-10T09:13:08.342Z,5.50
2018-12-10T09:15:36.699Z,5.50
2018-12-10T09:18:05.148Z,5.50
2018-12-10T09:20:33.587Z,5.50
2018-12-10T09:23:02.066Z,5.50
2018-12-10T09:25:30.621Z,5.50
2018-12-10T09:27:59.274Z,5.50
2018-12-10T09:30:27.741Z,5.60
2018-12-10T09:32:56.363Z,5.70
2018-12-10T09:35:24.839Z,5.80
2018-12-10T09:37:53.310Z,6.00
2018-12-10T09:40:21.787Z,6.00
2018-12-10T09:42:50.146Z,6.00
2018-12-10T09:45:18.493Z,6.00
2018-12-10T09:47:47.125Z,6.00
2018-12-10T09:50:16.155Z,6.00
2018-12-10T09:52:44.695Z,6.00
2018-12-10T09:55:13.183Z,6.10
2018-12-10T09:57:41.911Z,6.10
2018-12-10T10:00:11.174Z,6.20
2018-12-10T10:02:39.522Z,6.30
2018-12-10T10:05:08.250Z,6.60
2018-12-10T10:07:36.635Z,6.80
2018-12-10T10:10:05.847Z,7.00
2018-12-10T10:12:34.575Z,7.10
2018-12-10T10:15:03.131Z,7.00
2018-12-10T10:17:31.614Z,6.90
2018-12-10T10:20:00.318Z,6.80
2018-12-10T10:22:28.831Z,6.80
2018-12-10T10:24:57.180Z,6.70
2018-12-10T10:27:25.851Z,6.70
2018-12-10T10:29:54.194Z,6.70
2018-12-10T10:32:22.642Z,6.70
2018-12-10T10:34:51.268Z,6.70
2018-12-10T10:37:19.652Z,6.70
2018-12-10T10:39:48.058Z,6.80
2018-12-10T10:42:16.751Z,6.80
2018-12-10T10:44:45.114Z,6.70
2018-12-10T10:47:13.475Z,6.70
2018-12-10T10:49:42.489Z,6.60
2018-12-10T10:52:10.843Z,6.60
2018-12-10T10:54:39.190Z,6.60
2018-12-10T10:57:07.596Z,6.60
2018-12-10T10:59:36.127Z,6.60
2018-12-10T11:02:10.103Z,6.60
2018-12-10T11:04:38.480Z,6.60
2018-12-10T11:07:06.935Z,6.70
2018-12-10T11:09:35.386Z,6.70
2018-12-10T11:12:03.830Z,6.80
2018-12-10T11:14:32.238Z,6.80
2018-12-10T11:17:01.440Z,6.80
2018-12-10T11:19:29.929Z,6.80
2018-12-10T11:21:58.367Z,6.90
2018-12-10T11:24:26.775Z,6.80
2018-12-10T11:26:55.239Z,6.90
2018-12-10T11:29:23.586Z,6.90
2018-12-10T11:31:52.155Z,6.90
2018-12-10T11:34:20.486Z,6.90
2018-12-10T11:36:48.923Z,7.00
2018-12-10T11:39:17.938Z,7.00
2018-12-10T11:41:46.694Z,7.00
2018-12-10T11:44:16.175Z,7.10
2018-12-10T11:46:45.038Z,7.10
2018-12-10T11:49:13.379Z,7.10
2018-12-10T11:51:41.722Z,7.20
2018-12-10T11:54:11.082Z,7.20
2018-12-10T11:56:40.242Z,7.30
2018-12-10T11:59:09.050Z,7.30
2018-12-10T12:01:37.635Z,7.30
2018-12-10T12:04:06.035Z,7.20
2018-12-10T12:06:34.974Z,7.20
2018-12-10T12:09:06.175Z,7.20
2018-12-10T12:11:34.853Z,7.10
2018-12-10T12:14:03.884Z,7.00
2018-12-10T12:16:32.706Z,7.00
2018-12-10T12:19:01.202Z,7.20
2018-12-10T12:21:29.782Z,7.40
2018-12-10T12:23:59.033Z,7.50
2018-12-10T12:26:27.904Z,7.60
2018-12-10T12:28:56.254Z,7.80
2018-12-10T12:31:24.905Z,7.80
2018-12-10T12:33:53.560Z,7.80
2018-12-10T12:36:22.087Z,7.90
2018-12-10T12:38:51.156Z,7.80
2018-12-10T12:41:19.607Z,7.70
2018-12-10T12:43:48.010Z,7.80
2018-12-10T12:46:16.883Z,7.80
2018-12-10T12:48:45.369Z,7.80
2018-12-10T12:51:13.760Z,7.60
2018-12-10T12:53:42.676Z,7.30
2018-12-10T12:56:11.141Z,7.10
2018-12-10T12:58:39.774Z,7.00
2018-12-10T13:01:08.508Z,6.90
2018-12-10T13:03:36.865Z,6.90
2018-12-10T13:06:07.018Z,6.90
2018-12-10T13:08:35.743Z,6.90
2018-12-10T13:11:05.125Z,7.00
2018-12-10T13:13:33.470Z,7.10
2018-12-10T13:16:01.852Z,7.20
2018-12-10T13:18:30.197Z,7.30
2018-12-10T13:20:58.544Z,7.30
2018-12-10T13:23:26.930Z,7.40
2018-12-10T13:25:55.258Z,7.50
2018-12-10T13:28:23.613Z,7.50
2018-12-10T13:30:52.611Z,7.50
2018-12-10T13:33:20.983Z,7.50
2018-12-10T13:35:49.331Z,7.50
2018-12-10T13:38:18.107Z,7.40
2018-12-10T13:40:47.390Z,7.40
2018-12-10T13:43:15.794Z,7.30
2018-12-10T13:45:44.548Z,7.30
2018-12-10T13:48:12.910Z,7.20
2018-12-10T13:50:41.266Z,7.20
2018-12-10T13:53:09.650Z,7.30
2018-12-10T13:55:37.982Z,7.30
2018-12-10T13:58:06.347Z,7.20
2018-12-10T14:00:34.955Z,7.20
2018-12-10T14:03:05.726Z,7.00
2018-12-10T14:05:34.103Z,6.90
2018-12-10T14:08:02.944Z,6.90
2018-12-10T14:10:31.314Z,6.90
2018-12-10T14:12:59.750Z,6.90
2018-12-10T14:15:28.142Z,6.80
2018-12-10T14:17:56.481Z,6.70
2018-12-10T14:20:24.935Z,6.70
2018-12-10T14:22:53.298Z,6.60
2018-12-10T14:25:25.179Z,6.60
2018-12-10T14:27:53.950Z,6.50
2018-12-10T14:30:22.510Z,6.50
2018-12-10T14:32:50.957Z,6.60
2018-12-10T14:35:19.718Z,6.60
2018-12-10T14:37:48.198Z,6.70
2018-12-10T14:40:16.760Z,6.80
2018-12-10T14:42:53.219Z,6.80
2018-12-10T14:45:21.684Z,6.80
2018-12-10T14:47:51.733Z,6.70
2018-12-10T14:50:21.063Z,6.70
2018-12-10T14:52:49.594Z,6.60
2018-12-10T14:55:18.055Z,6.60
2018-12-10T14:57:47.099Z,6.60
2018-12-10T15:00:15.600Z,6.60
2018-12-10T15:02:44.119Z,6.60
2018-12-10T15:05:13.194Z,6.60
2018-12-10T15:07:41.557Z,6.60
2018-12-10T15:10:10.875Z,6.70
2018-12-10T15:12:39.307Z,6.70
2018-12-10T15:15:09.491Z,6.70
2018-12-10T15:17:38.117Z,6.60
2018-12-10T15:20:14.122Z,6.40
2018-12-10T15:22:42.542Z,6.20
2018-12-10T15:25:11.418Z,6.10
2018-12-10T15:27:40.011Z,6.00
2018-12-10T15:30:10.770Z,5.90
2018-12-10T15:32:39.271Z,5.80
2018-12-10T15:35:08.082Z,5.70
2018-12-10T15:37:36.438Z,5.60
2018-12-10T15:40:07.910Z,5.50
2018-12-10T15:42:38.519Z,5.40
2018-12-10T15:45:08.142Z,5.40
2018-12-10T15:47:38.814Z,5.30
2018-12-10T15:50:08.843Z,5.20
2018-12-10T15:52:37.194Z,5.20
2018-12-10T15:55:06.259Z,5.20
2018-12-10T15:57:34.671Z,5.20
2018-12-10T16:00:03.414Z,5.20
2018-12-10T16:02:32.226Z,5.30
2018-12-10T16:05:00.630Z,5.40
2018-12-10T16:07:29.067Z,5.50
2018-12-10T16:09:58.130Z,5.50
2018-12-10T16:12:27.354Z,5.50
2018-12-10T16:14:55.720Z,5.40
2018-12-10T16:17:24.443Z,5.40
2018-12-10T16:19:52.870Z,5.30
2018-12-10T16:22:21.322Z,5.30
2018-12-10T16:24:50.913Z,5.30
2018-12-10T16:27:19.611Z,5.30
2018-12-10T16:29:47.971Z,5.30
2018-12-10T16:32:16.366Z,5.40
2018-12-10T16:34:44.763Z,5.50
2018-12-10T16:37:13.111Z,5.50
2018-12-10T16:39:43.922Z,5.50
2018-12-10T16:42:12.682Z,5.40
2018-12-10T16:44:41.031Z,5.40
2018-12-10T16:47:09.660Z,5.40
2018-12-10T16:49:37.998Z,5.30
2018-12-10T16:52:06.462Z,5.20
2018-12-10T16:54:34.917Z,5.10
2018-12-10T16:57:03.431Z,5.00
2018-12-10T16:59:31.800Z,4.90
2018-12-10T17:02:00.643Z,4.90
2018-12-10T17:04:28.986Z,4.80
2018-12-10T17:06:57.434Z,4.80
2018-12-10T17:09:26.151Z,4.70
2018-12-10T17:11:54.834Z,4.70
2018-12-10T17:14:23.355Z,4.70
2018-12-10T17:16:52.159Z,4.80
2018-12-10T17:19:20.628Z,4.80
2018-12-10T17:21:48.997Z,4.80
2018-12-10T17:24:17.414Z,4.80
2018-12-10T17:26:45.812Z,4.80
2018-12-10T17:29:14.168Z,4.90
2018-12-10T17:31:42.555Z,5.00
2018-12-10T17:34:10.957Z,5.00
2018-12-10T17:36:39.317Z,4.90
2018-12-10T17:39:10.290Z,4.90
2018-12-10T17:41:38.914Z,4.90
2018-12-10T17:44:07.284Z,4.90
2018-12-10T17:46:36.239Z,4.90
2018-12-10T17:49:04.720Z,4.80
2018-12-10T17:51:33.158Z,4.80
2018-12-10T17:54:02.438Z,4.80
2018-12-10T17:56:31.279Z,4.80
2018-12-10T17:58:59.891Z,4.70
2018-12-10T18:01:28.580Z,4.60
2018-12-10T18:03:57.204Z,4.50
2018-12-10T18:06:25.651Z,4.50
2018-12-10T18:08:54.064Z,4.40
2018-12-10T18:11:23.363Z,4.40
2018-12-10T18:13:51.749Z,4.30
2018-12-10T18:16:20.587Z,4.30
2018-12-10T18:18:49.067Z,4.30
2018-12-10T18:21:17.744Z,4.30
2018-12-10T18:23:46.374Z,4.30
2018-12-10T18:26:15.018Z,4.30
2018-12-10T18:28:43.606Z,4.30
2018-12-10T18:31:12.150Z,4.20
2018-12-10T18:33:40.694Z,4.20
2018-12-10T18:36:09.210Z,4.20
2018-12-10T18:38:37.632Z,4.20
2018-12-10T18:41:06.134Z,4.20
2018-12-10T18:43:34.499Z,4.30
2018-12-10T18:46:04.434Z,4.30
2018-12-10T18:48:32.811Z,4.30
2018-12-10T18:51:01.183Z,4.30
2018-12-10T18:53:29.590Z,4.40
2018-12-10T18:55:58.228Z,4.40
2018-12-10T18:58:26.624Z,4.40
2018-12-10T19:00:55.030Z,4.50
2018-12-10T19:03:23.471Z,4.40
2018-12-10T19:05:51.872Z,4.40
2018-12-10T19:08:20.742Z,4.40
2018-12-10T19:10:49.150Z,4.50
2018-12-10T19:13:17.514Z,4.50
2018-12-10T19:15:46.105Z,4.50
2018-12-10T19:18:14.619Z,4.50
2018-12-10T19:20:42.967Z,4.50
2018-12-10T19:23:11.758Z,4.50
2018-12-10T19:25:40.174Z,4.50
2018-12-10T19:28:08.606Z,4.50
2018-12-10T19:30:36.995Z,4.50
2018-12-10T19:33:06.778Z,4.40
2018-12-10T19:35:36.189Z,4.40
2018-12-10T19:38:04.750Z,4.40
2018-12-10T19:40:33.251Z,4.50
2018-12-10T19:43:01.749Z,4.50
2018-12-10T19:45:30.715Z,4.50
2018-12-10T19:47:59.191Z,4.50
2018-12-10T19:50:28.444Z,4.50
2018-12-10T19:52:57.115Z,4.60
2018-12-10T19:55:25.858Z,4.60
2018-12-10T19:57:54.207Z,4.60
2018-12-10T20:00:22.863Z,4.60
2018-12-10T20:02:51.357Z,4.60
2018-12-10T20:05:21.771Z,4.60
2018-12-10T20:07:51.006Z,4.60
2018-12-10T20:10:19.370Z,4.60
2018-12-10T20:12:51.970Z,4.60
2018-12-10T20:15:20.436Z,4.60
2018-12-10T20:17:48.771Z,4.50
2018-12-10T20:20:17.332Z,4.50
2018-12-10T20:22:45.747Z,4.50
2018-12-10T20:25:14.183Z,4.50
2018-12-10T20:27:43.827Z,4.50
2018-12-10T20:30:12.533Z,4.50
2018-12-10T20:32:41.026Z,4.50
2018-12-10T20:35:09.633Z,4.60
2018-12-10T20:37:38.079Z,4.60
2018-12-10T20:40:07.110Z,4.60
2018-12-10T20:42:36.188Z,4.60
2018-12-10T20:45:05.514Z,4.50
2018-12-10T20:47:33.875Z,4.40
2018-12-10T20:50:03.642Z,4.40
2018-12-10T20:52:32.087Z,4.50
2018-12-10T20:55:00.526Z,4.50
2018-12-10T20:57:29.705Z,4.50
2018-12-10T20:59:58.077Z,4.50
2018-12-10T21:02:29.195Z,4.50
2018-12-10T21:04:57.314Z,4.50
2018-12-10T21:07:25.868Z,4.50
2018-12-10T21:09:54.274Z,4.50
2018-12-10T21:12:22.899Z,4.60
2018-12-10T21:14:51.347Z,4.60
2018-12-10T21:17:19.745Z,4.60
2018-12-10T21:19:50.627Z,4.50
2018-12-10T21:22:19.000Z,4.50
2018-12-10T21:24:47.419Z,4.50
2018-12-10T21:27:16.064Z,4.50
2018-12-10T21:29:44.607Z,4.50
2018-12-10T21:32:13.336Z,4.50
2018-12-10T21:34:42.043Z,4.50
2018-12-10T21:37:10.475Z,4.50
2018-12-10T21:39:39.039Z,4.60
2018-12-10T21:42:07.435Z,4.70
2018-12-10T21:44:35.775Z,4.70
2018-12-10T21:47:04.111Z,4.70
2018-12-10T21:49:32.822Z,4.60
2018-12-10T21:52:01.171Z,4.50
2018-12-10T21:54:29.543Z,4.40
2018-12-10T21:56:57.882Z,4.40
2018-12-10T21:59:26.252Z,4.30
2018-12-10T22:01:54.687Z,4.20
2018-12-10T22:04:23.162Z,4.20
2018-12-10T22:06:51.619Z,4.20
2018-12-10T22:09:19.976Z,4.10
2018-12-10T22:11:48.647Z,4.10
2018-12-10T22:14:16.983Z,4.00
2018-12-10T22:16:45.371Z,4.00
2018-12-10T22:19:13.803Z,4.00
2018-12-10T22:21:42.167Z,4.00
2018-12-10T22:24:10.498Z,4.00
2018-12-10T22:26:39.302Z,3.90
2018-12-10T22:29:07.738Z,3.90
2018-12-10T22:31:38.110Z,3.90
2018-12-10T22:34:06.943Z,3.80
2018-12-10T22:36:35.404Z,3.70
2018-12-10T22:39:07.509Z,3.70
2018-12-10T22:41:35.875Z,3.70
2018-12-10T22:44:04.464Z,3.60
2018-12-10T22:46:33.434Z,3.60
2018-12-10T22:49:01.772Z,3.50
2018-12-10T22:51:30.115Z,3.50
2018-12-10T22:53:58.528Z,3.50
2018-12-10T22:56:26.879Z,3.50
2018-12-10T22:58:55.242Z,3.50
2018-12-10T23:01:24.342Z,3.50
2018-12-10T23:03:52.706Z,3.50
2018-12-10T23:06:21.056Z,3.50
2018-12-10T23:08:51.371Z,3.50
2018-12-10T23:11:19.711Z,3.40
2018-12-10T23:13:48.062Z,3.40
2018-12-10T23:16:17.066Z,3.50
2018-12-10T23:18:45.406Z,3.50
2018-12-10T23:21:13.872Z,3.50
2018-12-10T23:23:42.222Z,3.50
2018-12-10T23:26:10.567Z,3.50
2018-12-10T23:28:38.937Z,3.50
2018-12-10T23:31:07.455Z,3.40
2018-12-10T23:33:35.783Z,3.40
2018-12-10T23:36:04.243Z,3.30
2018-12-10T23:38:33.112Z,3.30
2018-12-10T23:41:01.474Z,3.30
2018-12-10T23:43:29.816Z,3.30
2018-12-10T23:45:58.551Z,3.30
2018-12-10T23:48:26.919Z,3.30
2018-12-10T23:50:55.382Z,3.30
2018-12-10T23:53:24.041Z,3.40
2018-12-10T23:55:52.389Z,3.40
2018-12-10T23:58:20.748Z,3.40
